sensor_id;sensor_type;location;lat;lon;timestamp;pressure;altitude;pressure_sealevel;temperature;humidity
26915;BME280;14480;52.608;13.416;2023-01-26T07:35:34;140143.09;;;-15.82;100.00
26915;BME280;14480;52.608;13.416;2023-01-26T07:40:37;140155.34;;;-15.77;100.00
26915;BME280;14480;52.608;13.416;2023-01-26T07:45:43;140171.28;;;-15.71;100.00
26915;BME280;14480;52.608;13.416;2023-01-26T07:50:48;140182.31;;;-15.66;100.00
26915;BME280;14480;52.608;13.416;2023-01-26T07:55:51;140190.94;;;-15.63;100.00
26915;BME280;14480;52.608;13.416;2023-01-26T08:00:55;140150.44;;;-15.79;100.00
26915;BME280;14480;52.608;13.416;2023-01-26T08:06:00;140177.41;;;-15.68;100.00
26915;BME280;14480;52.608;13.416;2023-01-26T08:11:04;140165.19;;;-15.73;100.00
26915;BME280;14480;52.608;13.416;2023-01-26T08:16:08;140110.00;;;-15.96;100.00
26915;BME280;14480;52.608;13.416;2023-01-26T08:21:15;140010.69;;;-16.37;100.00
26915;BME280;14480;52.608;13.416;2023-01-26T08:26:19;140042.53;;;-16.24;100.00
26915;BME280;14480;52.608;13.416;2023-01-26T08:31:23;140068.28;;;-16.13;100.00
26915;BME280;14480;52.608;13.416;2023-01-26T08:36:28;140101.38;;;-16.00;100.00
26915;BME280;14480;52.608;13.416;2023-01-26T08:41:31;140129.59;;;-15.88;100.00
26915;BME280;14480;52.608;13.416;2023-01-26T08:46:35;140165.19;;;-15.73;100.00
26915;BME280;14480;52.608;13.416;2023-01-26T08:51:40;140133.25;;;-15.86;100.00
26915;BME280;14480;52.608;13.416;2023-01-26T08:56:43;140159.00;;;-15.76;100.00
26915;BME280;14480;52.608;13.416;2023-01-26T09:01:58;140159.00;;;-15.76;100.00
26915;BME280;14480;52.608;13.416;2023-01-26T09:07:03;140154.09;;;-15.78;100.00
26915;BME280;14480;52.608;13.416;2023-01-26T09:12:10;140204.34;;;-15.57;100.00
26915;BME280;14480;52.608;13.416;2023-01-26T09:17:13;140286.53;;;-15.23;100.00
26915;BME280;14480;52.608;13.416;2023-01-26T09:22:19;140290.22;;;-15.21;100.00
26915;BME280;14480;52.608;13.416;2023-01-26T09:27:22;140227.66;;;-15.47;100.00
26915;BME280;14480;52.608;13.416;2023-01-26T09:32:26;140200.69;;;-15.58;100.00
26915;BME280;14480;52.608;13.416;2023-01-26T09:37:30;140199.44;;;-15.59;100.00
26915;BME280;14480;52.608;13.416;2023-01-26T09:42:37;140166.41;;;-15.73;100.00
26915;BME280;14480;52.608;13.416;2023-01-26T09:47:46;140160.22;;;-15.75;100.00
26915;BME280;14480;52.608;13.416;2023-01-26T09:52:55;140040.09;;;-16.25;100.00
26915;BME280;14480;52.608;13.416;2023-01-26T09:58:04;140032.75;;;-16.28;100.00
26915;BME280;14480;52.608;13.416;2023-01-26T10:03:12;140052.38;;;-16.20;100.00
26915;BME280;14480;52.608;13.416;2023-01-26T10:08:20;140003.34;;;-16.40;100.00
26915;BME280;14480;52.608;13.416;2023-01-26T10:13:26;140013.13;;;-16.36;100.00
26915;BME280;14480;52.608;13.416;2023-01-26T10:18:30;140090.38;;;-16.04;100.00
26915;BME280;14480;52.608;13.416;2023-01-26T10:23:37;140108.78;;;-15.97;100.00
26915;BME280;14480;52.608;13.416;2023-01-26T10:28:48;140105.06;;;-15.98;100.00
26915;BME280;14480;52.608;13.416;2023-01-26T10:33:53;140127.13;;;-15.89;100.00
26915;BME280;14480;52.608;13.416;2023-01-26T10:39:03;140143.09;;;-15.82;100.00
26915;BME280;14480;52.608;13.416;2023-01-26T10:44:19;140009.47;;;-16.38;100.00
26915;BME280;14480;52.608;13.416;2023-01-26T10:49:25;140026.66;;;-16.31;100.00
26915;BME280;14480;52.608;13.416;2023-01-26T10:54:31;140062.19;;;-16.16;100.00
26915;BME280;14480;52.608;13.416;2023-01-26T10:59:38;140123.47;;;-15.90;100.00
26915;BME280;14480;52.608;13.416;2023-01-26T11:10:31;140163.94;;;-15.74;100.00
26915;BME280;14480;52.608;13.416;2023-01-26T11:15:36;139962.88;;;-16.57;100.00
26915;BME280;14480;52.608;13.416;2023-01-26T11:20:45;140059.72;;;-16.17;100.00
26915;BME280;14480;52.608;13.416;2023-01-26T11:31:15;140097.72;;;-16.01;100.00
26915;BME280;14480;52.608;13.416;2023-01-26T11:36:27;139994.75;;;-16.44;100.00
26915;BME280;14480;52.608;13.416;2023-01-26T11:41:39;140051.13;;;-16.21;100.00
26915;BME280;14480;52.608;13.416;2023-01-26T11:46:53;139971.50;;;-16.54;100.00
26915;BME280;14480;52.608;13.416;2023-01-26T11:52:03;140116.13;;;-15.94;100.00
26915;BME280;14480;52.608;13.416;2023-01-26T11:57:14;140190.94;;;-15.63;100.00
26915;BME280;14480;52.608;13.416;2023-01-26T12:02:30;140163.94;;;-15.74;100.00
26915;BME280;14480;52.608;13.416;2023-01-26T12:07:38;140149.22;;;-15.80;100.00
26915;BME280;14480;52.608;13.416;2023-01-26T12:13:04;140064.63;;;-16.15;100.00
26915;BME280;14480;52.608;13.416;2023-01-26T12:18:13;139999.69;;;-16.42;100.00
26915;BME280;14480;52.608;13.416;2023-01-26T12:23:24;140035.22;;;-16.27;100.00
26915;BME280;14480;52.608;13.416;2023-01-26T12:28:32;140103.84;;;-15.99;100.00
26915;BME280;14480;52.608;13.416;2023-01-26T12:33:42;139971.50;;;-16.54;100.00
26915;BME280;14480;52.608;13.416;2023-01-26T12:38:50;139934.75;;;-16.69;100.00
26915;BME280;14480;52.608;13.416;2023-01-26T12:43:58;139953.09;;;-16.61;100.00
26915;BME280;14480;52.608;13.416;2023-01-26T12:49:10;140046.22;;;-16.23;100.00
26915;BME280;14480;52.608;13.416;2023-01-26T12:54:22;140010.69;;;-16.37;100.00
26915;BME280;14480;52.608;13.416;2023-01-26T12:59:31;139961.66;;;-16.58;100.00
26915;BME280;14480;52.608;13.416;2023-01-26T13:04:51;139964.09;;;-16.57;100.00
26915;BME280;14480;52.608;13.416;2023-01-26T13:10:08;139939.59;;;-16.67;100.00
26915;BME280;14480;52.608;13.416;2023-01-26T13:15:15;139910.25;;;-16.79;100.00
26915;BME280;14480;52.608;13.416;2023-01-26T13:20:26;139943.31;;;-16.65;100.00
26915;BME280;14480;52.608;13.416;2023-01-26T13:25:31;139883.28;;;-16.90;100.00
26915;BME280;14480;52.608;13.416;2023-01-26T13:30:41;139953.09;;;-16.61;100.00
26915;BME280;14480;52.608;13.416;2023-01-26T13:35:47;139971.50;;;-16.54;100.00
26915;BME280;14480;52.608;13.416;2023-01-26T13:40:50;139893.13;;;-16.86;100.00
26915;BME280;14480;52.608;13.416;2023-01-26T13:46:11;139853.91;;;-17.02;100.00
26915;BME280;14480;52.608;13.416;2023-01-26T13:51:19;139911.47;;;-16.78;100.00
26915;BME280;14480;52.608;13.416;2023-01-26T13:56:25;139885.78;;;-16.89;100.00
26915;BME280;14480;52.608;13.416;2023-01-26T14:01:29;139949.44;;;-16.63;100.00
26915;BME280;14480;52.608;13.416;2023-01-26T14:06:40;139972.72;;;-16.53;100.00
26915;BME280;14480;52.608;13.416;2023-01-26T14:11:44;140013.13;;;-16.36;100.00
26915;BME280;14480;52.608;13.416;2023-01-26T14:16:51;139969.06;;;-16.55;100.00
26915;BME280;14480;52.608;13.416;2023-01-26T14:21:59;139937.19;;;-16.68;100.00
26915;BME280;14480;52.608;13.416;2023-01-26T14:27:05;139948.22;;;-16.63;100.00
26915;BME280;14480;52.608;13.416;2023-01-26T14:32:20;139994.75;;;-16.44;100.00
26915;BME280;14480;52.608;13.416;2023-01-26T14:37:27;139939.59;;;-16.67;100.00
26915;BME280;14480;52.608;13.416;2023-01-26T14:42:31;139915.19;;;-16.77;100.00
26915;BME280;14480;52.608;13.416;2023-01-26T14:47:34;139915.19;;;-16.77;100.00
26915;BME280;14480;52.608;13.416;2023-01-26T14:52:41;139935.97;;;-16.68;100.00
26915;BME280;14480;52.608;13.416;2023-01-26T14:57:46;139984.94;;;-16.48;100.00
26915;BME280;14480;52.608;13.416;2023-01-26T15:02:51;139981.28;;;-16.49;100.00
26915;BME280;14480;52.608;13.416;2023-01-26T15:07:58;140002.13;;;-16.41;100.00
26915;BME280;14480;52.608;13.416;2023-01-26T15:13:06;139997.22;;;-16.43;100.00
26915;BME280;14480;52.608;13.416;2023-01-26T15:18:19;139983.72;;;-16.48;100.00
26915;BME280;14480;52.608;13.416;2023-01-26T15:23:25;139900.47;;;-16.83;100.00
26915;BME280;14480;52.608;13.416;2023-01-26T15:28:29;139900.47;;;-16.83;100.00
26915;BME280;14480;52.608;13.416;2023-01-26T15:33:43;139931.09;;;-16.70;100.00
26915;BME280;14480;52.608;13.416;2023-01-26T15:38:48;139965.34;;;-16.56;100.00
26915;BME280;14480;52.608;13.416;2023-01-26T15:43:52;139905.34;;;-16.81;100.00
26915;BME280;14480;52.608;13.416;2023-01-26T15:48:57;139948.22;;;-16.63;100.00
26915;BME280;14480;52.608;13.416;2023-01-26T15:54:17;139993.50;;;-16.44;100.00
26915;BME280;14480;52.608;13.416;2023-01-26T15:59:22;140014.34;;;-16.36;100.00
26915;BME280;14480;52.608;13.416;2023-01-26T16:04:29;140037.66;;;-16.26;100.00
26915;BME280;14480;52.608;13.416;2023-01-26T16:09:48;140056.06;;;-16.18;100.00
26915;BME280;14480;52.608;13.416;2023-01-26T16:15:17;140047.44;;;-16.22;100.00
26915;BME280;14480;52.608;13.416;2023-01-26T16:20:24;140052.38;;;-16.20;100.00
26915;BME280;14480;52.608;13.416;2023-01-26T16:25:30;140041.31;;;-16.25;100.00
26915;BME280;14480;52.608;13.416;2023-01-26T16:30:34;140074.41;;;-16.11;100.00
26915;BME280;14480;52.608;13.416;2023-01-26T16:35:37;140043.78;;;-16.24;100.00
26915;BME280;14480;52.608;13.416;2023-01-26T16:40:43;140027.88;;;-16.30;100.00
26915;BME280;14480;52.608;13.416;2023-01-26T16:45:50;140057.28;;;-16.18;100.00
26915;BME280;14480;52.608;13.416;2023-01-26T16:50:55;140074.41;;;-16.11;100.00
26915;BME280;14480;52.608;13.416;2023-01-26T16:56:02;140063.41;;;-16.15;100.00
26915;BME280;14480;52.608;13.416;2023-01-26T17:01:10;139958.00;;;-16.59;100.00
26915;BME280;14480;52.608;13.416;2023-01-26T17:06:18;139983.72;;;-16.48;100.00
26915;BME280;14480;52.608;13.416;2023-01-26T17:11:24;139922.53;;;-16.74;100.00
26915;BME280;14480;52.608;13.416;2023-01-26T17:16:32;139891.91;;;-16.87;100.00
26915;BME280;14480;52.608;13.416;2023-01-26T17:22:25;139989.84;;;-16.46;100.00
26915;BME280;14480;52.608;13.416;2023-01-26T17:27:33;140013.13;;;-16.36;100.00
26915;BME280;14480;52.608;13.416;2023-01-26T17:32:36;140011.91;;;-16.37;100.00
26915;BME280;14480;52.608;13.416;2023-01-26T17:37:41;139989.84;;;-16.46;100.00
26915;BME280;14480;52.608;13.416;2023-01-26T17:42:47;140018.03;;;-16.34;100.00
26915;BME280;14480;52.608;13.416;2023-01-26T17:47:50;139909.03;;;-16.79;100.00
26915;BME280;14480;52.608;13.416;2023-01-26T17:52:55;139915.19;;;-16.77;100.00
26915;BME280;14480;52.608;13.416;2023-01-26T17:58:00;139907.81;;;-16.80;100.00
26915;BME280;14480;52.608;13.416;2023-01-26T18:03:03;139889.47;;;-16.88;100.00
26915;BME280;14480;52.608;13.416;2023-01-26T18:08:07;139842.91;;;-17.07;100.00
26915;BME280;14480;52.608;13.416;2023-01-26T18:13:12;139804.97;;;-17.23;100.00
26915;BME280;14480;52.608;13.416;2023-01-26T18:18:16;139893.13;;;-16.86;100.00
26915;BME280;14480;52.608;13.416;2023-01-26T18:23:19;139937.19;;;-16.68;100.00
26915;BME280;14480;52.608;13.416;2023-01-26T18:28:25;140008.25;;;-16.38;100.00
26915;BME280;14480;52.608;13.416;2023-01-26T18:33:31;140025.41;;;-16.31;100.00
26915;BME280;14480;52.608;13.416;2023-01-26T18:38:37;139998.47;;;-16.42;100.00
26915;BME280;14480;52.608;13.416;2023-01-26T18:43:42;139894.34;;;-16.86;100.00
26915;BME280;14480;52.608;13.416;2023-01-26T18:48:46;139895.56;;;-16.85;100.00
26915;BME280;14480;52.608;13.416;2023-01-26T18:53:52;139890.69;;;-16.87;100.00
26915;BME280;14480;52.608;13.416;2023-01-26T18:58:59;139907.81;;;-16.80;100.00
26915;BME280;14480;52.608;13.416;2023-01-26T19:04:03;139959.22;;;-16.59;100.00
26915;BME280;14480;52.608;13.416;2023-01-26T19:09:08;139868.63;;;-16.96;100.00
26915;BME280;14480;52.608;13.416;2023-01-26T19:14:16;139879.63;;;-16.92;100.00
26915;BME280;14480;52.608;13.416;2023-01-26T19:19:22;139890.69;;;-16.87;100.00
26915;BME280;14480;52.608;13.416;2023-01-26T19:24:26;139915.19;;;-16.77;100.00
26915;BME280;14480;52.608;13.416;2023-01-26T19:29:33;139937.19;;;-16.68;100.00
26915;BME280;14480;52.608;13.416;2023-01-26T19:34:37;139933.53;;;-16.69;100.00
26915;BME280;14480;52.608;13.416;2023-01-26T19:39:43;139866.19;;;-16.97;100.00
26915;BME280;14480;52.608;13.416;2023-01-26T19:44:50;139823.28;;;-17.15;100.00
26915;BME280;14480;52.608;13.416;2023-01-26T19:50:20;139887.00;;;-16.89;100.00
26915;BME280;14480;52.608;13.416;2023-01-26T19:55:27;139929.88;;;-16.71;100.00
26915;BME280;14480;52.608;13.416;2023-01-26T20:00:33;139953.09;;;-16.61;100.00
26915;BME280;14480;52.608;13.416;2023-01-26T20:05:36;139911.47;;;-16.78;100.00
26915;BME280;14480;52.608;13.416;2023-01-26T20:10:41;139849.00;;;-17.04;100.00
26915;BME280;14480;52.608;13.416;2023-01-26T20:15:46;139934.75;;;-16.69;100.00
26915;BME280;14480;52.608;13.416;2023-01-26T20:20:52;139901.69;;;-16.83;100.00
26915;BME280;14480;52.608;13.416;2023-01-26T20:26:00;139863.72;;;-16.98;100.00
26915;BME280;14480;52.608;13.416;2023-01-26T20:31:06;139917.63;;;-16.76;100.00
26915;BME280;14480;52.608;13.416;2023-01-26T20:36:11;139917.63;;;-16.76;100.00
26915;BME280;14480;52.608;13.416;2023-01-26T20:41:20;139863.72;;;-16.98;100.00
26915;BME280;14480;52.608;13.416;2023-01-26T20:46:29;139862.50;;;-16.99;100.00
26915;BME280;14480;52.608;13.416;2023-01-26T20:51:36;139823.28;;;-17.15;100.00
26915;BME280;14480;52.608;13.416;2023-01-26T20:56:43;139840.47;;;-17.08;100.00
26915;BME280;14480;52.608;13.416;2023-01-26T21:01:49;139882.06;;;-16.91;100.00
26915;BME280;14480;52.608;13.416;2023-01-26T21:06:53;139910.25;;;-16.79;100.00
26915;BME280;14480;52.608;13.416;2023-01-26T21:12:00;139942.09;;;-16.66;100.00
26915;BME280;14480;52.608;13.416;2023-01-26T21:17:08;140013.13;;;-16.36;100.00
26915;BME280;14480;52.608;13.416;2023-01-26T21:22:12;140067.06;;;-16.14;100.00
26915;BME280;14480;52.608;13.416;2023-01-26T21:27:19;139983.72;;;-16.48;100.00
26915;BME280;14480;52.608;13.416;2023-01-26T21:32:24;140045.00;;;-16.23;100.00
26915;BME280;14480;52.608;13.416;2023-01-26T21:37:28;139965.34;;;-16.56;100.00
26915;BME280;14480;52.608;13.416;2023-01-26T21:42:32;139888.22;;;-16.88;100.00
26915;BME280;14480;52.608;13.416;2023-01-26T21:47:39;139896.78;;;-16.85;100.00
26915;BME280;14480;52.608;13.416;2023-01-26T21:52:43;139912.75;;;-16.78;100.00
26915;BME280;14480;52.608;13.416;2023-01-26T21:58:01;139910.25;;;-16.79;100.00
26915;BME280;14480;52.608;13.416;2023-01-26T22:03:24;139894.34;;;-16.86;100.00
26915;BME280;14480;52.608;13.416;2023-01-26T22:08:27;139873.50;;;-16.94;100.00
26915;BME280;14480;52.608;13.416;2023-01-26T22:13:33;139887.00;;;-16.89;100.00
26915;BME280;14480;52.608;13.416;2023-01-26T22:18:38;139875.97;;;-16.93;100.00
26915;BME280;14480;52.608;13.416;2023-01-26T22:23:41;139872.28;;;-16.95;100.00
26915;BME280;14480;52.608;13.416;2023-01-26T22:28:48;139861.28;;;-16.99;100.00
26915;BME280;14480;52.608;13.416;2023-01-26T22:33:54;139878.41;;;-16.92;100.00
26915;BME280;14480;52.608;13.416;2023-01-26T22:38:58;139900.47;;;-16.83;100.00
26915;BME280;14480;52.608;13.416;2023-01-26T22:44:02;139889.47;;;-16.88;100.00
26915;BME280;14480;52.608;13.416;2023-01-26T22:49:08;139924.97;;;-16.73;100.00
26915;BME280;14480;52.608;13.416;2023-01-26T22:54:11;139880.84;;;-16.91;100.00
26915;BME280;14480;52.608;13.416;2023-01-26T22:59:16;139955.56;;;-16.60;100.00
26915;BME280;14480;52.608;13.416;2023-01-26T23:04:21;140009.47;;;-16.38;100.00
26915;BME280;14480;52.608;13.416;2023-01-26T23:09:24;139964.09;;;-16.57;100.00
